createdAt,value
2018-05-23T00:00:18.665Z,4.33
2018-05-23T00:02:46.201Z,4.67
2018-05-23T00:05:13.767Z,4.47
2018-05-23T00:07:42.069Z,4.30
2018-05-23T00:10:09.629Z,4.30
2018-05-23T00:12:37.170Z,4.90
2018-05-23T00:15:05.498Z,4.60
2018-05-23T00:17:33.034Z,4.57
2018-05-23T00:20:00.593Z,4.40
2018-05-23T00:22:28.123Z,4.50
2018-05-23T00:24:56.440Z,4.70
2018-05-23T00:27:23.975Z,4.13
2018-05-23T00:29:52.292Z,4.53
2018-05-23T00:32:19.817Z,4.70
2018-05-23T00:34:48.137Z,4.50
2018-05-23T00:37:15.669Z,4.47
2018-05-23T00:39:43.233Z,4.33
2018-05-23T00:42:10.757Z,4.43
2018-05-23T00:44:39.088Z,4.33
2018-05-23T00:47:06.624Z,4.07
2018-05-23T00:49:34.186Z,4.53
2018-05-23T00:52:01.725Z,4.30
2018-05-23T00:54:30.052Z,4.13
2018-05-23T00:56:57.581Z,4.53
2018-05-23T00:59:25.141Z,4.33
2018-05-23T01:01:52.669Z,4.23
2018-05-23T01:04:20.229Z,4.60
2018-05-23T01:06:47.752Z,4.50
2018-05-23T01:09:15.301Z,4.13
2018-05-23T01:11:42.839Z,4.77
2018-05-23T01:14:10.442Z,4.30
2018-05-23T01:16:37.984Z,4.03
2018-05-23T01:19:05.545Z,4.27
2018-05-23T01:21:33.080Z,4.47
2018-05-23T01:24:00.614Z,4.03
2018-05-23T01:26:28.935Z,4.63
2018-05-23T01:28:56.460Z,4.20
2018-05-23T01:31:24.788Z,3.90
2018-05-23T01:33:52.321Z,4.57
2018-05-23T01:36:19.885Z,4.60
2018-05-23T01:38:47.411Z,4.60
2018-05-23T01:41:15.736Z,3.90
2018-05-23T01:43:43.273Z,4.30
2018-05-23T01:46:10.836Z,4.23
2018-05-23T01:48:49.944Z,4.77
2018-05-23T01:51:18.272Z,4.33
2018-05-23T01:53:45.797Z,4.33
2018-05-23T01:56:14.123Z,4.77
2018-05-23T01:58:41.650Z,4.03
2018-05-23T02:01:09.210Z,4.43
2018-05-23T02:03:36.744Z,3.93
2018-05-23T02:06:05.075Z,4.47
2018-05-23T02:08:32.608Z,4.33
2018-05-23T02:11:00.164Z,4.10
2018-05-23T02:13:27.769Z,4.43
2018-05-23T02:15:55.324Z,4.40
2018-05-23T02:18:22.853Z,4.57
2018-05-23T02:20:50.424Z,4.03
2018-05-23T02:23:17.960Z,4.63
2018-05-23T02:25:45.523Z,4.40
2018-05-23T02:28:13.053Z,3.90
2018-05-23T02:30:40.608Z,3.80
2018-05-23T02:33:08.145Z,3.80
2018-05-23T02:35:35.793Z,4.30
2018-05-23T02:38:03.244Z,4.00
2018-05-23T02:40:30.797Z,4.20
2018-05-23T02:42:58.319Z,4.10
2018-05-23T02:45:26.645Z,4.50
2018-05-23T02:47:54.170Z,4.10
2018-05-23T02:50:21.739Z,4.07
2018-05-23T02:52:49.284Z,4.20
2018-05-23T02:55:17.606Z,4.07
2018-05-23T02:57:45.137Z,4.13
2018-05-23T03:00:12.701Z,3.83
2018-05-23T03:02:40.220Z,3.80
2018-05-23T03:05:07.751Z,4.07
2018-05-23T03:07:35.309Z,4.40
2018-05-23T03:10:03.600Z,4.23
2018-05-23T03:12:31.162Z,4.33
2018-05-23T03:14:58.692Z,4.40
2018-05-23T03:17:26.254Z,3.83
2018-05-23T03:19:53.772Z,4.30
2018-05-23T03:22:22.163Z,3.93
2018-05-23T03:24:50.454Z,4.10
2018-05-23T03:27:18.012Z,4.50
2018-05-23T03:29:45.541Z,3.90
2018-05-23T03:32:13.097Z,4.27
2018-05-23T03:34:40.625Z,4.23
2018-05-23T03:37:08.179Z,3.90
2018-05-23T03:39:35.714Z,4.13
2018-05-23T03:42:03.266Z,4.03
2018-05-23T03:44:30.796Z,4.20
2018-05-23T03:46:58.352Z,4.70
2018-05-23T03:49:25.876Z,4.27
2018-05-23T03:51:53.440Z,4.40
2018-05-23T03:54:20.968Z,4.03
2018-05-23T03:56:48.533Z,4.43
2018-05-23T03:59:16.064Z,4.20
2018-05-23T04:01:55.467Z,4.20
2018-05-23T04:04:34.801Z,3.97
2018-05-23T04:10:18.672Z,4.03
2018-05-23T04:12:46.225Z,4.37
2018-05-23T04:15:13.756Z,4.07
2018-05-23T04:17:41.308Z,3.77
2018-05-23T04:20:08.832Z,4.00
2018-05-23T04:22:36.392Z,3.67
2018-05-23T04:25:03.921Z,3.80
2018-05-23T04:27:31.470Z,4.03
2018-05-23T04:29:59.008Z,3.80
2018-05-23T04:32:26.575Z,4.40
2018-05-23T04:34:54.106Z,4.10
2018-05-23T04:37:21.660Z,3.80
2018-05-23T04:39:49.186Z,4.17
2018-05-23T04:42:16.764Z,3.93
2018-05-23T04:44:44.306Z,3.97
2018-05-23T04:47:11.831Z,3.80
2018-05-23T04:49:39.376Z,3.67
2018-05-23T04:52:07.659Z,4.17
2018-05-23T04:54:35.971Z,4.03
2018-05-23T04:57:03.484Z,4.03
2018-05-23T04:59:31.030Z,3.80
2018-05-23T05:01:58.553Z,4.00
2018-05-23T05:04:26.170Z,4.30
2018-05-23T05:06:54.457Z,3.97
2018-05-23T05:09:22.776Z,4.10
2018-05-23T05:11:50.293Z,3.90
2018-05-23T05:14:18.609Z,3.93
2018-05-23T05:16:46.128Z,3.73
2018-05-23T05:19:14.442Z,3.93
2018-05-23T05:21:41.964Z,3.77
2018-05-23T05:24:10.289Z,3.90
2018-05-23T05:26:37.805Z,4.17
2018-05-23T05:29:06.128Z,4.30
2018-05-23T05:31:33.694Z,4.00
2018-05-23T05:34:01.253Z,4.10
2018-05-23T05:36:28.773Z,3.87
2018-05-23T05:38:56.327Z,3.93
2018-05-23T05:41:24.613Z,3.90
2018-05-23T05:43:52.278Z,4.10
2018-05-23T05:46:19.814Z,3.97
2018-05-23T05:48:48.750Z,4.40
2018-05-23T05:51:17.139Z,4.30
2018-05-23T05:53:44.855Z,4.10
2018-05-23T05:56:13.419Z,3.97
2018-05-23T05:58:41.600Z,3.77
2018-05-23T06:01:09.128Z,4.50
2018-05-23T06:03:36.687Z,4.23
2018-05-23T06:06:04.210Z,5.20
2018-05-23T06:08:31.765Z,4.40
2018-05-23T06:11:00.051Z,4.43
2018-05-23T06:13:27.608Z,4.83
2018-05-23T06:15:55.146Z,4.20
2018-05-23T06:18:23.470Z,4.50
2018-05-23T06:20:50.991Z,4.20
2018-05-23T06:23:19.276Z,4.57
2018-05-23T06:25:47.588Z,4.27
2018-05-23T06:28:15.108Z,4.30
2018-05-23T06:30:43.436Z,4.30
2018-05-23T06:33:10.967Z,4.40
2018-05-23T06:35:38.521Z,4.30
2018-05-23T06:38:06.082Z,4.13
2018-05-23T06:40:33.627Z,4.47
2018-05-23T06:43:01.912Z,4.30
2018-05-23T06:45:30.228Z,4.10
2018-05-23T06:47:57.747Z,3.60
2018-05-23T06:50:26.076Z,3.80
2018-05-23T06:52:53.606Z,4.03
2018-05-23T06:55:21.155Z,4.17
2018-05-23T06:57:48.675Z,4.10
2018-05-23T07:00:16.222Z,3.77
2018-05-23T07:02:43.739Z,3.33
2018-05-23T07:05:11.289Z,3.93
2018-05-23T07:07:39.578Z,3.97
2018-05-23T07:10:07.134Z,4.23
2018-05-23T07:12:34.664Z,4.00
2018-05-23T07:15:02.223Z,4.00
2018-05-23T07:17:29.750Z,4.03
2018-05-23T07:19:57.305Z,4.00
2018-05-23T07:22:24.835Z,4.17
2018-05-23T07:24:52.389Z,4.10
2018-05-23T07:27:19.925Z,4.43
2018-05-23T07:29:47.470Z,4.20
2018-05-23T07:32:14.998Z,4.10
2018-05-23T07:34:42.560Z,4.43
2018-05-23T07:37:10.095Z,4.70
2018-05-23T07:39:37.651Z,4.40
2018-05-23T07:42:05.184Z,4.60
2018-05-23T07:44:32.736Z,4.73
2018-05-23T07:47:00.267Z,4.47
2018-05-23T07:49:27.816Z,4.33
2018-05-23T07:51:55.342Z,4.67
2018-05-23T07:54:23.632Z,4.30
2018-05-23T07:56:51.194Z,4.17
2018-05-23T07:59:18.722Z,4.33
2018-05-23T08:01:46.276Z,4.10
2018-05-23T08:04:13.800Z,4.30
2018-05-23T08:06:41.351Z,4.30
2018-05-23T08:09:08.869Z,4.00
2018-05-23T08:11:37.189Z,3.97
2018-05-23T08:14:04.708Z,4.23
2018-05-23T08:16:32.264Z,4.30
2018-05-23T08:19:00.548Z,4.47
2018-05-23T08:21:28.860Z,4.63
2018-05-23T08:23:56.389Z,4.57
2018-05-23T08:26:24.708Z,4.63
2018-05-23T08:28:52.988Z,4.10
2018-05-23T08:31:20.536Z,4.17
2018-05-23T08:33:48.055Z,3.77
2018-05-23T08:36:15.625Z,4.27
2018-05-23T08:38:43.922Z,4.00
2018-05-23T08:41:11.477Z,4.00
2018-05-23T08:43:39.013Z,3.93
2018-05-23T08:46:06.630Z,4.00
2018-05-23T08:48:34.876Z,3.83
2018-05-23T08:51:02.433Z,3.67
2018-05-23T08:53:29.956Z,3.93
2018-05-23T08:55:57.513Z,3.50
2018-05-23T08:58:25.038Z,3.57
2018-05-23T09:00:52.588Z,3.83
2018-05-23T09:03:20.112Z,3.63
2018-05-23T09:05:48.432Z,3.23
2018-05-23T09:08:15.956Z,3.50
2018-05-23T09:10:44.277Z,3.30
2018-05-23T09:13:11.812Z,3.57
2018-05-23T09:15:39.372Z,3.23
2018-05-23T09:18:06.897Z,3.43
2018-05-23T09:20:34.458Z,3.20
2018-05-23T09:23:01.980Z,3.13
2018-05-23T09:25:29.630Z,3.43
2018-05-23T09:27:57.113Z,3.10
2018-05-23T09:30:24.633Z,3.00
2018-05-23T09:32:52.187Z,3.67
2018-05-23T09:35:19.704Z,3.33
2018-05-23T09:37:47.260Z,3.30
2018-05-23T09:40:14.789Z,3.10
2018-05-23T09:42:42.340Z,3.20
2018-05-23T09:45:09.919Z,2.97
2018-05-23T09:47:38.208Z,3.20
2018-05-23T09:50:05.727Z,3.50
2018-05-23T09:52:33.293Z,3.40
2018-05-23T09:55:00.851Z,3.00
2018-05-23T09:57:29.160Z,3.00
2018-05-23T09:59:56.680Z,2.90
2018-05-23T10:02:24.241Z,3.07
2018-05-23T10:04:52.561Z,2.90
2018-05-23T10:07:20.112Z,3.40
2018-05-23T10:09:47.642Z,2.90
2018-05-23T10:12:15.219Z,2.97
2018-05-23T10:14:42.744Z,2.90
2018-05-23T10:17:11.039Z,3.23
2018-05-23T10:19:38.601Z,3.17
2018-05-23T10:22:06.886Z,3.00
2018-05-23T10:24:34.438Z,2.83
2018-05-23T10:27:01.968Z,2.90
2018-05-23T10:29:29.516Z,2.70
2018-05-23T10:31:57.038Z,2.80
2018-05-23T10:34:24.594Z,2.70
2018-05-23T10:36:52.115Z,2.97
2018-05-23T10:39:19.668Z,2.90
2018-05-23T10:41:47.193Z,3.00
2018-05-23T10:44:14.741Z,2.83
2018-05-23T10:46:42.260Z,2.77
2018-05-23T10:49:10.583Z,3.00
2018-05-23T10:51:38.180Z,3.10
2018-05-23T10:54:05.672Z,2.90
2018-05-23T10:56:33.987Z,3.17
2018-05-23T10:59:01.564Z,3.07
2018-05-23T11:01:29.081Z,3.00
2018-05-23T11:03:56.640Z,2.80
2018-05-23T11:06:24.165Z,2.90
2018-05-23T11:08:51.763Z,3.13
2018-05-23T11:11:19.308Z,2.90
2018-05-23T11:13:46.828Z,3.30
2018-05-23T11:16:14.376Z,2.90
2018-05-23T11:18:41.906Z,2.90
2018-05-23T11:21:09.452Z,3.33
2018-05-23T11:23:37.732Z,2.70
2018-05-23T11:26:06.044Z,2.80
2018-05-23T11:28:33.578Z,2.90
2018-05-23T11:31:01.141Z,3.10
2018-05-23T11:33:28.704Z,3.17
2018-05-23T11:35:56.253Z,2.93
2018-05-23T11:38:23.771Z,3.17
2018-05-23T11:40:51.316Z,3.13
2018-05-23T11:43:18.836Z,2.90
2018-05-23T11:45:46.383Z,2.60
2018-05-23T11:48:14.669Z,3.00
2018-05-23T11:50:42.217Z,2.90
2018-05-23T11:53:10.504Z,3.17
2018-05-23T11:55:38.826Z,3.50
2018-05-23T11:58:06.352Z,3.20
2018-05-23T12:00:33.905Z,2.87
2018-05-23T12:03:01.429Z,3.00
2018-05-23T12:05:28.976Z,3.07
2018-05-23T12:07:56.488Z,3.10
2018-05-23T12:10:24.093Z,2.80
2018-05-23T12:12:51.601Z,2.70
2018-05-23T12:15:19.891Z,3.17
2018-05-23T12:17:47.439Z,2.75
2018-05-23T12:20:15.724Z,2.90
2018-05-23T12:22:43.275Z,3.25
2018-05-23T12:25:11.562Z,2.85
2018-05-23T12:27:39.112Z,2.90
2018-05-23T12:30:07.405Z,3.33
2018-05-23T12:32:34.954Z,3.08
2018-05-23T12:35:03.245Z,2.70
2018-05-23T12:37:30.816Z,2.62
2018-05-23T12:39:58.337Z,3.00
2018-05-23T12:42:27.390Z,3.00
2018-05-23T12:44:55.024Z,3.72
2018-05-23T12:47:22.584Z,2.80
2018-05-23T12:49:50.105Z,3.03
2018-05-23T12:52:17.656Z,2.95
2018-05-23T12:54:45.182Z,3.20
2018-05-23T12:57:12.729Z,3.30
2018-05-23T12:59:40.294Z,3.28
2018-05-23T13:02:07.845Z,3.50
2018-05-23T13:04:35.368Z,3.25
2018-05-23T13:07:03.692Z,3.40
2018-05-23T13:09:31.224Z,3.12
2018-05-23T13:11:59.564Z,3.33
2018-05-23T13:14:27.113Z,3.15
2018-05-23T13:16:54.645Z,3.20
2018-05-23T13:19:22.196Z,3.08
2018-05-23T13:21:50.178Z,3.50
2018-05-23T13:24:17.924Z,3.30
2018-05-23T13:26:46.591Z,3.03
2018-05-23T13:29:15.484Z,2.85
2018-05-23T13:31:43.799Z,2.90
2018-05-23T13:34:11.421Z,3.45
2018-05-23T13:36:39.713Z,2.53
2018-05-23T13:39:08.046Z,2.62
2018-05-23T13:41:35.569Z,3.47
2018-05-23T13:44:03.128Z,3.03
2018-05-23T13:46:30.649Z,3.00
2018-05-23T13:48:58.195Z,2.90
2018-05-23T13:51:25.728Z,3.12
2018-05-23T13:53:53.297Z,2.97
2018-05-23T13:56:20.828Z,3.03
2018-05-23T13:58:48.387Z,3.10
2018-05-23T14:01:15.908Z,3.15
2018-05-23T14:03:43.460Z,2.83
2018-05-23T14:06:10.977Z,2.90
2018-05-23T14:08:38.535Z,3.03
2018-05-23T14:11:06.825Z,2.90
2018-05-23T14:13:34.408Z,2.78
2018-05-23T14:16:01.960Z,3.10
2018-05-23T14:18:29.483Z,3.00
2018-05-23T14:20:57.032Z,2.90
2018-05-23T14:23:24.572Z,2.60
2018-05-23T14:25:52.901Z,2.70
2018-05-23T14:28:20.454Z,2.80
2018-05-23T14:30:47.996Z,2.72
2018-05-23T14:33:15.516Z,2.78
2018-05-23T14:35:43.151Z,2.50
2018-05-23T14:38:11.396Z,2.90
2018-05-23T14:40:38.956Z,2.70
2018-05-23T14:43:06.476Z,2.70
2018-05-23T14:45:34.724Z,2.90
2018-05-23T14:48:02.330Z,2.90
2018-05-23T14:50:31.397Z,2.85
2018-05-23T14:52:58.933Z,2.58
2018-05-23T14:55:26.488Z,2.72
2018-05-23T14:57:54.012Z,2.70
2018-05-23T15:00:21.565Z,2.70
2018-05-23T15:02:49.847Z,3.03
2018-05-23T15:05:18.163Z,2.87
2018-05-23T15:07:45.679Z,2.85
2018-05-23T15:10:13.998Z,2.70
2018-05-23T15:12:41.525Z,2.90
2018-05-23T15:15:09.082Z,3.00
2018-05-23T15:17:37.374Z,2.80
2018-05-23T15:20:04.955Z,2.80
2018-05-23T15:22:32.471Z,2.60
2018-05-23T15:25:00.024Z,2.67
2018-05-23T15:27:27.556Z,3.00
2018-05-23T15:29:55.107Z,2.50
2018-05-23T15:32:22.641Z,2.67
2018-05-23T15:34:50.201Z,2.62
2018-05-23T15:37:17.720Z,2.70
2018-05-23T15:39:45.245Z,2.95
2018-05-23T15:42:12.796Z,2.55
2018-05-23T15:44:40.321Z,2.60
2018-05-23T15:47:08.653Z,2.67
2018-05-23T15:49:36.178Z,2.47
2018-05-23T15:52:03.740Z,2.70
2018-05-23T15:54:31.260Z,2.80
2018-05-23T15:56:58.900Z,2.62
2018-05-23T15:59:27.116Z,2.60
2018-05-23T16:01:55.433Z,2.70
2018-05-23T16:04:22.969Z,2.50
2018-05-23T16:06:50.521Z,2.22
2018-05-23T16:09:18.866Z,2.58
2018-05-23T16:11:46.382Z,2.33
2018-05-23T16:14:13.937Z,2.75
2018-05-23T16:16:41.495Z,2.10
2018-05-23T16:19:09.057Z,2.45
2018-05-23T16:21:36.589Z,2.45
2018-05-23T16:24:04.913Z,2.10
2018-05-23T16:26:32.436Z,2.45
2018-05-23T16:29:00.748Z,2.62
2018-05-23T16:31:28.282Z,2.60
2018-05-23T16:33:56.602Z,2.30
2018-05-23T16:36:24.133Z,2.12
2018-05-23T16:38:51.683Z,2.30
2018-05-23T16:41:19.222Z,2.15
2018-05-23T16:43:47.556Z,2.08
2018-05-23T16:46:15.081Z,1.85
2018-05-23T16:48:42.642Z,1.95
2018-05-23T16:51:10.169Z,2.00
2018-05-23T16:53:37.724Z,2.20
2018-05-23T16:56:05.262Z,1.77
2018-05-23T16:58:32.808Z,1.98
2018-05-23T17:01:00.324Z,2.00
2018-05-23T17:03:28.641Z,1.77
2018-05-23T17:05:56.170Z,2.00
2018-05-23T17:08:24.497Z,1.77
2018-05-23T17:10:52.024Z,2.08
2018-05-23T17:13:19.578Z,1.80
2018-05-23T17:15:47.104Z,1.77
2018-05-23T17:18:14.673Z,1.75
2018-05-23T17:20:42.968Z,2.00
2018-05-23T17:23:11.282Z,1.87
2018-05-23T17:25:38.892Z,1.92
2018-05-23T17:28:06.385Z,1.92
2018-05-23T17:30:33.943Z,2.20
2018-05-23T17:33:01.477Z,1.90
2018-05-23T17:35:29.803Z,1.90
2018-05-23T17:37:57.333Z,1.90
2018-05-23T17:40:24.888Z,1.73
2018-05-23T17:42:52.413Z,1.85
2018-05-23T17:45:20.757Z,1.90
2018-05-23T17:47:48.272Z,1.67
2018-05-23T17:50:16.599Z,1.80
2018-05-23T17:52:44.121Z,2.00
2018-05-23T17:55:11.692Z,2.15
2018-05-23T17:57:39.214Z,1.83
2018-05-23T18:00:06.776Z,2.00
2018-05-23T18:02:34.302Z,1.98
2018-05-23T18:05:01.864Z,2.10
2018-05-23T18:07:29.416Z,2.20
2018-05-23T18:09:56.949Z,2.20
2018-05-23T18:12:24.534Z,2.15
2018-05-23T18:14:52.065Z,2.40
2018-05-23T18:17:19.623Z,2.08
2018-05-23T18:19:47.913Z,2.20
2018-05-23T18:22:15.520Z,2.17
2018-05-23T18:24:43.045Z,2.45
2018-05-23T18:27:11.490Z,2.70
2018-05-23T18:29:39.068Z,2.65
2018-05-23T18:32:06.636Z,2.20
2018-05-23T18:34:34.175Z,2.30
2018-05-23T18:37:02.492Z,2.25
2018-05-23T18:39:30.019Z,2.47
2018-05-23T18:41:57.579Z,2.45
2018-05-23T18:44:25.872Z,2.22
2018-05-23T18:46:53.425Z,2.03
2018-05-23T18:49:20.982Z,2.40
2018-05-23T18:51:49.293Z,2.20
2018-05-23T18:54:16.832Z,2.40
2018-05-23T18:56:44.380Z,2.78
2018-05-23T18:59:12.692Z,2.03
2018-05-23T19:01:40.215Z,2.20
2018-05-23T19:04:08.542Z,2.33
2018-05-23T19:06:36.078Z,2.20
2018-05-23T19:09:03.645Z,2.37
2018-05-23T19:11:31.169Z,2.47
2018-05-23T19:13:58.781Z,2.55
2018-05-23T19:16:26.323Z,2.40
2018-05-23T19:18:53.873Z,2.40
2018-05-23T19:21:21.446Z,2.05
2018-05-23T19:23:49.734Z,2.22
2018-05-23T19:26:17.256Z,2.10
2018-05-23T19:28:45.565Z,1.93
2018-05-23T19:31:13.087Z,2.35
2018-05-23T19:33:41.441Z,1.95
2018-05-23T19:36:08.961Z,2.37
2018-05-23T19:38:36.702Z,2.17
2018-05-23T19:41:04.328Z,2.13
2018-05-23T19:43:32.803Z,2.03
2018-05-23T19:46:00.438Z,2.10
2018-05-23T19:48:28.022Z,1.70
2018-05-23T19:50:56.327Z,2.03
2018-05-23T19:53:23.880Z,2.00
2018-05-23T19:55:51.405Z,2.00
2018-05-23T19:58:18.957Z,1.90
2018-05-23T20:00:46.478Z,1.80
2018-05-23T20:03:14.793Z,2.10
2018-05-23T20:05:42.325Z,2.00
2018-05-23T20:08:09.946Z,1.90
2018-05-23T20:10:37.482Z,2.13
2018-05-23T20:13:05.042Z,2.20
2018-05-23T20:15:32.573Z,2.00
2018-05-23T20:18:00.142Z,2.10
2018-05-23T20:20:27.700Z,1.90
2018-05-23T20:22:55.256Z,1.77
2018-05-23T20:25:22.781Z,2.10
2018-05-23T20:27:50.311Z,2.10
2018-05-23T20:30:17.882Z,2.10
2018-05-23T20:32:45.408Z,1.97
2018-05-23T20:35:13.012Z,2.10
2018-05-23T20:37:40.738Z,2.10
2018-05-23T20:40:08.407Z,2.00
2018-05-23T20:42:35.941Z,1.90
2018-05-23T20:45:04.313Z,1.80
2018-05-23T20:47:31.873Z,2.20
2018-05-23T20:49:59.448Z,1.67
2018-05-23T20:52:27.040Z,1.77
2018-05-23T20:54:54.755Z,1.87
2018-05-23T20:57:23.042Z,2.00
2018-05-23T20:59:50.590Z,1.80
2018-05-23T21:02:18.882Z,1.80
2018-05-23T21:04:46.438Z,1.77
2018-05-23T21:07:13.985Z,1.97
2018-05-23T21:09:42.296Z,1.90
2018-05-23T21:12:09.822Z,1.93
2018-05-23T21:14:38.141Z,1.90
2018-05-23T21:17:05.662Z,1.80
2018-05-23T21:19:34.062Z,1.60
2018-05-23T21:22:01.510Z,1.97
2018-05-23T21:24:29.062Z,1.80
2018-05-23T21:26:57.349Z,1.73
2018-05-23T21:29:24.907Z,1.73
2018-05-23T21:31:52.437Z,2.87
2018-05-23T21:34:19.991Z,2.00
2018-05-23T21:36:47.518Z,1.70
2018-05-23T21:39:15.064Z,2.00
2018-05-23T21:41:43.157Z,1.97
2018-05-23T21:44:11.220Z,2.20
2018-05-23T21:46:38.824Z,2.07
2018-05-23T21:49:07.152Z,1.70
2018-05-23T21:51:34.678Z,1.60
2018-05-23T21:54:03.584Z,1.80
2018-05-23T21:56:31.127Z,1.57
2018-05-23T21:58:59.429Z,1.73
2018-05-23T22:01:26.978Z,1.83
2018-05-23T22:03:54.512Z,1.90
2018-05-23T22:06:22.074Z,2.00
2018-05-23T22:08:50.369Z,1.63
2018-05-23T22:11:18.750Z,1.90
2018-05-23T22:13:46.233Z,1.90
2018-05-23T22:16:13.785Z,2.00
2018-05-23T22:18:41.321Z,1.90
2018-05-23T22:21:09.650Z,1.83
2018-05-23T22:23:37.178Z,2.00
2018-05-23T22:26:05.403Z,1.80
2018-05-23T22:28:32.925Z,2.10
2018-05-23T22:31:01.505Z,1.77
2018-05-23T22:33:29.033Z,1.97
2018-05-23T22:35:57.378Z,1.80
2018-05-23T22:38:24.890Z,2.20
2018-05-23T22:40:52.442Z,1.90
2018-05-23T22:43:20.731Z,2.10
2018-05-23T22:45:48.280Z,1.90
2018-05-23T22:48:16.568Z,1.60
2018-05-23T22:50:44.123Z,2.00
2018-05-23T22:53:12.405Z,1.97
2018-05-23T22:55:39.961Z,1.90
2018-05-23T22:58:08.250Z,1.97
2018-05-23T23:00:35.814Z,1.93
2018-05-23T23:03:03.381Z,1.90
2018-05-23T23:05:30.939Z,2.03
2018-05-23T23:07:58.458Z,2.10
2018-05-23T23:10:26.018Z,2.10
2018-05-23T23:12:53.545Z,2.17
2018-05-23T23:15:21.092Z,2.20
2018-05-23T23:17:48.607Z,2.00
2018-05-23T23:20:16.159Z,1.97
2018-05-23T23:22:43.690Z,2.00
2018-05-23T23:25:11.255Z,2.40
2018-05-23T23:27:38.871Z,2.10
2018-05-23T23:30:06.369Z,1.97
2018-05-23T23:32:33.902Z,2.30
2018-05-23T23:35:01.442Z,2.03
2018-05-23T23:37:29.763Z,1.97
2018-05-23T23:39:57.295Z,2.30
2018-05-23T23:42:24.848Z,2.40
2018-05-23T23:44:52.431Z,2.00
2018-05-23T23:47:19.988Z,2.03
2018-05-23T23:49:47.508Z,2.10
2018-05-23T23:52:15.834Z,2.27
2018-05-23T23:54:43.437Z,2.10
2018-05-23T23:57:10.934Z,2.00
2018-05-23T23:59:38.453Z,2.40
